ZBAATNCM

Guest
Details From ZBAA - Capital Intl
To TNCM - St Maarten - Princess Juliana Intl
Flight Number -
Tags Generated
Created
Modified
Stats Distance 7,319 nm / 13,554 km
Max Altitude 0 ft / 0 m
Waypoints 5
Social Downloads 1
Likes 0
Share VATSIM

Download

Looking for another format? Having issues loading an existing format? Contact us
Advertisement - Login to hide

Notes

Generated

Route

ZBAA KULUR IKMAN PJD TNCM

ID Type Via Altitude Latitude Longitude Leg Dist Tot Dist Heading (true) Name
O ZBAA APT - 0 ft / 0 m 40.10211˚ 116.56969˚ - 0 nm - -
KULUR FIX - 0 ft / 0 m 62.58333˚ 116.80000˚ 1350 nm 1350 nm 0° / 0° -
IKMAN FIX - 0 ft / 0 m 62.50000˚ -63.00000˚ 3298 nm 4648 nm 360° / 180° -
PJD NDB - 0 ft / 0 m 18.03833˚ -63.11833˚ 2670 nm 7318 nm 180° / 180° ST MAARTEN NDB
O TNCM APT - 0 ft / 0 m 18.03937˚ -63.11961˚ 0 nm 7318 nm 310° / 310° -

Altitude Profile

Advertisement - Login to hide

Weather


0- 5 10 15 20 25 30 35+ Temperature / ° C

Clouds and Precipitation
Forecast for 2018-05-23 12:00 UTC. Updated 2 hours ago

Ground ~20,000 ft ~40,000 ft Winds

ZBAA

Details ICAO ZBAA (PEK)
Name CAPITAL INTL
Region China
Timezone Asia/Shanghai (UTC+8.0)
Stats Elevation 116 ft / 35 m (AMSL)
Location 40.080118° 116.584563°
Runways 2
Magnetic Variation 6.980° W

METAR

ZBAA 231330Z 21004MPS 190V250 CAVOK 27/08 Q1000 NOSIG

Decode

TAF

Not found

Departure Runways

ID Width Length Bearing (true) Bearing (mag) Surface Threshold Offset Overrun Length
18L 197 ft / 60 m 12,436 ft / 3,790 m 173.12° 180.10° Asphalt 0 ft / 0 m 197 ft / 60 m
18R 164 ft / 50 m 10,506 ft / 3,202 m 174.11° 181.09° Asphalt 0 ft / 0 m 197 ft / 60 m
36L 164 ft / 50 m 10,506 ft / 3,202 m 354.11° 1.09° Asphalt 0 ft / 0 m 197 ft / 60 m
36R 197 ft / 60 m 12,436 ft / 3,790 m 353.12° 0.10° Asphalt 0 ft / 0 m 197 ft / 60 m

TNCM

Details ICAO TNCM (SXM)
Name St Maarten - Princess Juliana Intl
Region Caribbean Netherlands, Aruba, Curaçao, Sint Maarten
Timezone Unknown (UTC+0.0)
Stats Elevation 12 ft / 4 m (AMSL)
Location 18.040889° -63.108974°
Runways 1
Magnetic Variation 14.337° W

METAR

TNCM 231300Z 09011KT 050V130 9999 SCT018 28/22 Q1019 A3011 NOSIG

Decode

TAF

TAF TAF TNCM 231130Z 2312/2412 09012KT P6SM SCT020

Decode

Destination Runways

ID Width Length Bearing (true) Bearing (mag) Surface Threshold Offset Overrun Length
10 148 ft / 45 m 7,464 ft / 2,275 m 81.43° 95.77° Asphalt 0 ft / 0 m 151 ft / 46 m
28 148 ft / 45 m 7,464 ft / 2,275 m 261.44° 275.78° Asphalt 397 ft / 121 m 0 ft / 0 m

Popular Alternatives